createdAt,value
2023-04-09T00:00:30.302Z,100.00
2023-04-09T00:02:57.780Z,100.00
2023-04-09T00:05:26.675Z,100.00
2023-04-09T00:07:54.347Z,100.00
2023-04-09T00:10:22.046Z,100.00
2023-04-09T00:12:49.579Z,100.00
2023-04-09T00:15:24.352Z,100.00
2023-04-09T00:17:57.894Z,100.00
2023-04-09T00:20:26.736Z,100.00
2023-04-09T00:22:54.273Z,100.00
2023-04-09T00:25:21.736Z,100.00
2023-04-09T00:27:49.078Z,100.00
2023-04-09T00:30:16.693Z,100.00
2023-04-09T00:32:44.135Z,100.00
2023-04-09T00:35:11.551Z,100.00
2023-04-09T00:37:40.293Z,100.00
2023-04-09T00:40:08.637Z,100.00
2023-04-09T00:42:37.314Z,100.00
2023-04-09T00:45:05.896Z,100.00
2023-04-09T00:47:34.622Z,100.00
2023-04-09T00:50:02.719Z,100.00
2023-04-09T00:52:30.978Z,100.00
2023-04-09T00:55:01.572Z,100.00
2023-04-09T00:57:29.410Z,100.00
2023-04-09T00:59:56.940Z,100.00
2023-04-09T01:02:24.518Z,100.00
2023-04-09T01:04:52.907Z,100.00
2023-04-09T01:07:32.690Z,100.00
2023-04-09T01:10:10.163Z,100.00
2023-04-09T01:12:47.281Z,100.00
2023-04-09T01:15:19.153Z,100.00
2023-04-09T01:17:54.020Z,100.00
2023-04-09T01:20:29.819Z,100.00
2023-04-09T01:23:06.037Z,100.00
2023-04-09T01:25:46.095Z,100.00
2023-04-09T01:28:17.980Z,100.00
2023-04-09T01:30:58.358Z,100.00
2023-04-09T01:33:27.078Z,100.00
2023-04-09T01:35:55.773Z,100.00
2023-04-09T01:38:25.097Z,100.00
2023-04-09T01:40:53.870Z,100.00
2023-04-09T01:43:23.081Z,100.00
2023-04-09T01:45:52.376Z,100.00
2023-04-09T01:48:21.276Z,100.00
2023-04-09T01:50:53.429Z,100.00
2023-04-09T01:53:22.408Z,100.00
2023-04-09T01:55:50.379Z,100.00
2023-04-09T01:58:17.806Z,100.00
2023-04-09T02:00:49.279Z,100.00
2023-04-09T02:03:19.693Z,100.00
2023-04-09T02:05:53.305Z,100.00
2023-04-09T02:08:23.902Z,100.00
2023-04-09T02:10:55.577Z,100.00
2023-04-09T02:13:25.744Z,100.00
2023-04-09T02:15:56.774Z,100.00
2023-04-09T02:18:28.511Z,100.00
2023-04-09T02:20:56.711Z,100.00
2023-04-09T02:23:24.447Z,100.00
2023-04-09T02:25:54.424Z,100.00
2023-04-09T02:28:21.904Z,100.00
2023-04-09T02:30:49.266Z,100.00
2023-04-09T02:33:18.020Z,100.00
2023-04-09T02:35:45.446Z,100.00
2023-04-09T02:38:13.778Z,100.00
2023-04-09T02:40:41.666Z,100.00
2023-04-09T02:43:09.191Z,100.00
2023-04-09T02:45:37.205Z,100.00
2023-04-09T02:48:04.986Z,100.00
2023-04-09T02:50:33.731Z,100.00
2023-04-09T02:53:01.155Z,100.00
2023-04-09T02:55:28.656Z,100.00
2023-04-09T02:57:56.093Z,100.00
2023-04-09T03:00:23.696Z,100.00
2023-04-09T03:02:51.171Z,100.00
2023-04-09T03:05:18.664Z,100.00
2023-04-09T03:07:47.711Z,100.00
2023-04-09T03:10:16.543Z,100.00
2023-04-09T03:12:44.502Z,100.00
2023-04-09T03:15:12.181Z,100.00
2023-04-09T03:17:41.119Z,100.00
2023-04-09T03:20:09.115Z,100.00
2023-04-09T03:22:37.226Z,100.00
2023-04-09T03:25:06.966Z,100.00
2023-04-09T03:27:34.400Z,100.00
2023-04-09T03:30:02.342Z,100.00
2023-04-09T03:32:29.732Z,100.00
2023-04-09T03:34:57.111Z,100.00
2023-04-09T03:37:24.485Z,100.00
2023-04-09T03:39:51.851Z,100.00
2023-04-09T03:42:20.556Z,100.00
2023-04-09T03:44:47.928Z,100.00
2023-04-09T03:47:15.349Z,100.00
2023-04-09T03:49:42.761Z,100.00
2023-04-09T03:52:10.336Z,100.00
2023-04-09T03:54:37.803Z,100.00
2023-04-09T03:57:05.220Z,100.00
2023-04-09T03:59:33.880Z,100.00
2023-04-09T04:02:01.678Z,100.00
2023-04-09T04:04:29.379Z,100.00
2023-04-09T04:06:56.873Z,100.00
2023-04-09T04:09:24.326Z,100.00
2023-04-09T04:11:51.694Z,100.00
2023-04-09T04:14:19.047Z,100.00
2023-04-09T04:16:47.763Z,100.00
2023-04-09T04:19:15.454Z,100.00
2023-04-09T04:21:42.891Z,100.00
2023-04-09T04:24:10.356Z,100.00
2023-04-09T04:26:40.333Z,100.00
2023-04-09T04:29:10.543Z,100.00
2023-04-09T04:31:37.935Z,100.00
2023-04-09T04:34:06.645Z,100.00
2023-04-09T04:36:34.011Z,100.00
2023-04-09T04:39:01.396Z,100.00
2023-04-09T04:41:29.331Z,100.00
2023-04-09T04:43:57.164Z,100.00
2023-04-09T04:46:24.565Z,100.00
2023-04-09T04:48:52.246Z,100.00
2023-04-09T04:51:21.149Z,100.00
2023-04-09T04:53:48.531Z,100.00
2023-04-09T04:56:16.301Z,100.00
2023-04-09T04:58:43.826Z,100.00
2023-04-09T05:01:11.231Z,100.00
2023-04-09T05:03:38.658Z,100.00
2023-04-09T05:06:06.145Z,100.00
2023-04-09T05:08:34.858Z,100.00
2023-04-09T05:11:02.216Z,100.00
2023-04-09T05:13:29.582Z,100.00
2023-04-09T05:15:56.962Z,100.00
2023-04-09T05:18:24.341Z,100.00
2023-04-09T05:20:51.722Z,100.00
2023-04-09T05:23:19.103Z,100.00
2023-04-09T05:25:49.295Z,100.00
2023-04-09T05:28:17.412Z,100.00
2023-04-09T05:30:47.384Z,100.00
2023-04-09T05:33:14.786Z,100.00
2023-04-09T05:35:42.196Z,100.00
2023-04-09T05:38:09.577Z,100.00
2023-04-09T05:40:39.099Z,100.00
2023-04-09T05:43:07.848Z,100.00
2023-04-09T05:45:35.931Z,100.00
2023-04-09T05:48:03.318Z,100.00
2023-04-09T05:50:31.856Z,100.00
2023-04-09T05:53:01.934Z,100.00
2023-04-09T05:55:29.303Z,100.00
2023-04-09T05:57:57.143Z,100.00
2023-04-09T06:00:25.879Z,100.00
2023-04-09T06:02:53.428Z,100.00
2023-04-09T06:05:21.424Z,100.00
2023-04-09T06:07:49.063Z,100.00
2023-04-09T06:10:16.541Z,100.00
2023-04-09T06:12:43.920Z,100.00
2023-04-09T06:15:12.261Z,100.00
2023-04-09T06:17:41.134Z,100.00
2023-04-09T06:20:09.474Z,100.00
2023-04-09T06:22:36.917Z,100.00
2023-04-09T06:25:04.957Z,100.00
2023-04-09T06:27:35.255Z,100.00
2023-04-09T06:30:02.721Z,100.00
2023-04-09T06:32:32.041Z,100.00
2023-04-09T06:35:02.386Z,100.00
2023-04-09T06:37:29.782Z,100.00
2023-04-09T06:40:00.951Z,100.00
2023-04-09T06:42:29.142Z,100.00
2023-04-09T06:44:56.576Z,100.00
2023-04-09T06:47:24.011Z,100.00
2023-04-09T06:49:51.369Z,100.00
2023-04-09T06:52:22.124Z,100.00
2023-04-09T06:54:49.486Z,100.00
2023-04-09T06:57:18.985Z,100.00
2023-04-09T06:59:46.353Z,100.00
2023-04-09T07:02:13.768Z,100.00
2023-04-09T07:04:41.372Z,100.00
2023-04-09T07:07:08.763Z,100.00
2023-04-09T07:09:37.434Z,100.00
2023-04-09T07:12:04.864Z,100.00
2023-04-09T07:14:32.232Z,100.00
2023-04-09T07:16:59.573Z,100.00
2023-04-09T07:19:27.013Z,100.00
2023-04-09T07:21:54.408Z,100.00
2023-04-09T07:24:21.816Z,100.00
2023-04-09T07:26:52.079Z,100.00
2023-04-09T07:29:20.642Z,100.00
2023-04-09T07:31:48.068Z,100.00
2023-04-09T07:34:15.635Z,100.00
2023-04-09T07:36:43.545Z,100.00
2023-04-09T07:39:10.923Z,100.00
2023-04-09T07:41:38.403Z,100.00
2023-04-09T07:44:07.447Z,100.00
2023-04-09T07:46:34.899Z,100.00
2023-04-09T07:49:02.274Z,100.00
2023-04-09T07:51:29.648Z,100.00
2023-04-09T07:53:57.034Z,100.00
2023-04-09T07:56:24.388Z,100.00
2023-04-09T07:58:51.952Z,100.00
2023-04-09T08:01:24.428Z,100.00
2023-04-09T08:03:52.148Z,100.00
2023-04-09T08:06:19.707Z,100.00
2023-04-09T08:08:51.174Z,100.00
2023-04-09T08:11:24.972Z,100.00
2023-04-09T08:13:55.130Z,100.00
2023-04-09T08:16:24.421Z,100.00
2023-04-09T08:18:52.054Z,100.00
2023-04-09T08:21:19.628Z,100.00
2023-04-09T08:23:47.041Z,100.00
2023-04-09T08:26:14.467Z,100.00
2023-04-09T08:28:42.130Z,100.00
2023-04-09T08:31:12.093Z,100.00
2023-04-09T08:33:41.100Z,100.00
2023-04-09T08:36:11.292Z,100.00
2023-04-09T08:38:38.779Z,100.00
2023-04-09T08:41:06.512Z,100.00
2023-04-09T08:43:47.185Z,100.00
2023-04-09T08:46:22.804Z,100.00
2023-04-09T08:48:53.317Z,100.00
2023-04-09T08:51:23.270Z,100.00
2023-04-09T08:53:56.936Z,100.00
2023-04-09T08:56:24.742Z,100.00
2023-04-09T08:58:52.453Z,100.00
2023-04-09T09:01:21.724Z,100.00
2023-04-09T09:03:58.686Z,100.00
2023-04-09T09:06:28.697Z,100.00
2023-04-09T09:09:05.365Z,100.00
2023-04-09T09:11:33.504Z,100.00
2023-04-09T09:14:02.612Z,100.00
2023-04-09T09:16:31.229Z,100.00
2023-04-09T09:19:00.826Z,100.00
2023-04-09T09:21:28.756Z,100.00
2023-04-09T09:23:56.517Z,100.00
2023-04-09T09:26:25.574Z,100.00
2023-04-09T09:28:53.242Z,100.00
2023-04-09T09:31:22.425Z,100.00
2023-04-09T09:33:51.776Z,100.00
2023-04-09T09:36:33.245Z,100.00
2023-04-09T09:39:03.791Z,100.00
2023-04-09T09:41:31.754Z,100.00
2023-04-09T09:43:59.172Z,100.00
2023-04-09T09:46:27.422Z,100.00
2023-04-09T09:48:55.410Z,100.00
2023-04-09T09:51:27.642Z,100.00
2023-04-09T09:53:58.082Z,100.00
2023-04-09T09:56:32.483Z,100.00
2023-04-09T09:59:08.335Z,100.00
2023-04-09T10:01:36.556Z,100.00
2023-04-09T10:04:07.112Z,100.00
2023-04-09T10:06:35.561Z,100.00
2023-04-09T10:09:06.636Z,100.00
2023-04-09T10:11:36.257Z,100.00
2023-04-09T10:14:05.132Z,100.00
2023-04-09T10:16:34.709Z,100.00
2023-04-09T10:19:03.135Z,100.00
2023-04-09T10:21:39.520Z,100.00
2023-04-09T10:24:09.525Z,100.00
2023-04-09T10:26:42.368Z,100.00
2023-04-09T10:29:13.792Z,100.00
2023-04-09T10:31:52.246Z,100.00
2023-04-09T10:34:21.613Z,100.00
2023-04-09T10:36:55.309Z,100.00
2023-04-09T10:39:27.503Z,100.00
2023-04-09T10:41:55.764Z,100.00
2023-04-09T10:44:24.208Z,100.00
2023-04-09T10:46:54.687Z,100.00
2023-04-09T10:49:24.358Z,100.00
2023-04-09T10:51:53.390Z,100.00
2023-04-09T10:54:45.396Z,100.00
2023-04-09T10:57:14.998Z,100.00
2023-04-09T10:59:44.913Z,100.00
2023-04-09T11:02:44.512Z,100.00
2023-04-09T11:05:20.284Z,100.00
2023-04-09T11:07:56.660Z,100.00
2023-04-09T11:10:25.427Z,100.00
2023-04-09T11:12:53.692Z,100.00
2023-04-09T11:15:22.048Z,100.00
2023-04-09T11:17:51.403Z,100.00
2023-04-09T11:20:21.940Z,100.00
2023-04-09T11:22:51.980Z,100.00
2023-04-09T11:25:23.618Z,100.00
2023-04-09T11:27:52.528Z,100.00
2023-04-09T11:30:20.653Z,100.00
2023-04-09T11:32:49.018Z,100.00
2023-04-09T11:35:18.215Z,100.00
2023-04-09T11:37:46.924Z,100.00
2023-04-09T11:40:18.628Z,100.00
2023-04-09T11:42:46.957Z,100.00
2023-04-09T11:45:16.799Z,100.00
2023-04-09T11:47:45.637Z,100.00
2023-04-09T11:50:14.565Z,100.00
2023-04-09T11:52:42.274Z,100.00
2023-04-09T11:55:11.115Z,100.00
2023-04-09T11:57:43.840Z,100.00
2023-04-09T12:00:14.095Z,100.00
2023-04-09T12:02:46.290Z,100.00
2023-04-09T12:05:23.529Z,100.00
2023-04-09T12:07:56.360Z,100.00
2023-04-09T12:10:28.296Z,100.00
2023-04-09T12:12:56.186Z,100.00
2023-04-09T12:15:27.599Z,100.00
2023-04-09T12:17:56.793Z,100.00
2023-04-09T12:20:29.349Z,100.00
2023-04-09T12:22:56.882Z,100.00
2023-04-09T12:25:24.614Z,100.00
2023-04-09T12:27:52.081Z,100.00
2023-04-09T12:30:19.477Z,100.00
2023-04-09T12:32:46.951Z,100.00
2023-04-09T12:35:16.016Z,100.00
2023-04-09T12:37:44.075Z,100.00
2023-04-09T12:40:13.700Z,100.00
2023-04-09T12:42:41.605Z,100.00
2023-04-09T12:45:11.162Z,100.00
2023-04-09T12:47:39.570Z,100.00
2023-04-09T12:50:09.028Z,100.00
2023-04-09T12:52:37.848Z,100.00
2023-04-09T12:55:06.679Z,100.00
2023-04-09T12:57:34.512Z,100.00
2023-04-09T13:00:01.957Z,100.00
2023-04-09T13:02:30.084Z,100.00
2023-04-09T13:04:57.696Z,100.00
2023-04-09T13:07:26.047Z,100.00
2023-04-09T13:09:54.711Z,100.00
2023-04-09T13:12:22.305Z,100.00
2023-04-09T13:14:50.435Z,100.00
2023-04-09T13:17:26.607Z,100.00
2023-04-09T13:19:54.057Z,100.00
2023-04-09T13:22:21.456Z,100.00
2023-04-09T13:24:48.855Z,100.00
2023-04-09T13:27:18.082Z,100.00
2023-04-09T13:29:45.564Z,100.00
2023-04-09T13:32:13.203Z,100.00
2023-04-09T13:34:40.808Z,100.00
2023-04-09T13:37:08.162Z,100.00
2023-04-09T13:39:35.576Z,100.00
2023-04-09T13:42:12.745Z,100.00
2023-04-09T13:44:45.272Z,100.00
2023-04-09T13:47:13.026Z,100.00
2023-04-09T13:49:41.172Z,100.00
2023-04-09T13:52:08.550Z,100.00
2023-04-09T13:54:36.099Z,100.00
2023-04-09T13:57:03.842Z,100.00
2023-04-09T13:59:31.359Z,100.00
2023-04-09T14:02:00.348Z,100.00
2023-04-09T14:04:27.964Z,100.00
2023-04-09T14:06:55.386Z,100.00
2023-04-09T14:09:22.771Z,100.00
2023-04-09T14:11:50.855Z,100.00
2023-04-09T14:14:19.771Z,100.00
2023-04-09T14:16:48.260Z,100.00
2023-04-09T14:19:16.977Z,100.00
2023-04-09T14:21:44.950Z,100.00
2023-04-09T14:24:12.461Z,100.00
2023-04-09T14:26:40.045Z,100.00
2023-04-09T14:29:07.471Z,100.00
2023-04-09T14:31:34.895Z,100.00
2023-04-09T14:34:02.345Z,100.00
2023-04-09T14:36:31.584Z,100.00
2023-04-09T14:38:59.001Z,100.00
2023-04-09T14:41:26.830Z,100.00
2023-04-09T14:43:54.177Z,100.00
2023-04-09T14:46:22.108Z,100.00
2023-04-09T14:48:49.670Z,100.00
2023-04-09T14:51:17.317Z,100.00
2023-04-09T14:53:46.329Z,100.00
2023-04-09T14:56:13.774Z,100.00
2023-04-09T14:58:41.133Z,100.00
2023-04-09T15:01:08.955Z,100.00
2023-04-09T15:03:36.677Z,100.00
2023-04-09T15:06:04.557Z,100.00
2023-04-09T15:08:31.927Z,100.00
2023-04-09T15:11:00.675Z,100.00
2023-04-09T15:13:28.031Z,100.00
2023-04-09T15:15:55.489Z,100.00
2023-04-09T15:18:22.939Z,100.00
2023-04-09T15:20:51.114Z,100.00
2023-04-09T15:23:18.507Z,100.00
2023-04-09T15:25:45.928Z,96.86
2023-04-09T15:28:14.788Z,96.20
2023-04-09T15:30:42.174Z,92.79
2023-04-09T15:33:12.546Z,91.00
2023-04-09T15:35:40.008Z,86.54
2023-04-09T15:38:07.369Z,86.74
2023-04-09T15:40:34.740Z,89.60
2023-04-09T15:43:02.102Z,88.54
2023-04-09T15:45:31.121Z,87.10
2023-04-09T15:47:58.594Z,84.68
2023-04-09T15:50:26.144Z,83.59
2023-04-09T15:52:54.903Z,84.25
2023-04-09T15:55:22.908Z,81.90
2023-04-09T15:57:50.275Z,80.40
2023-04-09T16:00:17.666Z,82.17
2023-04-09T16:02:46.378Z,81.06
2023-04-09T16:05:13.753Z,83.77
2023-04-09T16:07:41.488Z,86.54
2023-04-09T16:10:09.875Z,86.74
2023-04-09T16:12:37.265Z,86.38
2023-04-09T16:15:05.016Z,85.44
2023-04-09T16:17:34.498Z,85.67
2023-04-09T16:20:09.937Z,84.94
2023-04-09T16:22:37.313Z,85.28
2023-04-09T16:25:04.954Z,86.27
2023-04-09T16:27:32.398Z,86.22
2023-04-09T16:30:00.240Z,89.49
2023-04-09T16:32:27.617Z,95.23
2023-04-09T16:34:56.015Z,98.20
2023-04-09T16:37:24.735Z,98.58
2023-04-09T16:42:19.343Z,97.37
2023-04-09T16:44:46.799Z,95.91
2023-04-09T16:47:14.175Z,96.70
2023-04-09T16:49:41.538Z,95.61
2023-04-09T16:52:08.976Z,97.66
2023-04-09T16:54:37.709Z,99.68
2023-04-09T16:57:05.153Z,99.65
2023-04-09T16:59:32.546Z,100.00
2023-04-09T17:01:59.972Z,100.00
2023-04-09T17:04:28.161Z,100.00
2023-04-09T17:06:55.624Z,100.00
2023-04-09T17:09:22.996Z,100.00
2023-04-09T17:11:52.864Z,100.00
2023-04-09T17:14:20.413Z,100.00
2023-04-09T17:16:48.360Z,100.00
2023-04-09T17:19:15.769Z,100.00
2023-04-09T17:21:43.144Z,100.00
2023-04-09T17:24:10.735Z,100.00
2023-04-09T17:26:38.100Z,100.00
2023-04-09T17:29:07.447Z,100.00
2023-04-09T17:31:34.823Z,100.00
2023-04-09T17:34:02.207Z,100.00
2023-04-09T17:36:31.528Z,100.00
2023-04-09T17:38:58.906Z,100.00
2023-04-09T17:41:27.625Z,100.00
2023-04-09T17:43:55.334Z,100.00
2023-04-09T17:46:24.462Z,100.00
2023-04-09T17:48:52.809Z,100.00
2023-04-09T17:51:20.645Z,100.00
2023-04-09T17:53:48.222Z,100.00
2023-04-09T17:56:17.523Z,100.00
2023-04-09T17:58:45.089Z,100.00
2023-04-09T18:01:13.419Z,100.00
2023-04-09T18:03:43.049Z,100.00
2023-04-09T18:06:10.826Z,100.00
2023-04-09T18:08:38.320Z,100.00
2023-04-09T18:11:12.879Z,100.00
2023-04-09T18:13:40.851Z,100.00
2023-04-09T18:16:09.923Z,100.00
2023-04-09T18:18:37.331Z,100.00
2023-04-09T18:21:06.986Z,100.00
2023-04-09T18:23:34.425Z,100.00
2023-04-09T18:26:01.842Z,100.00
2023-04-09T18:28:29.246Z,100.00
2023-04-09T18:30:57.603Z,100.00
2023-04-09T18:33:25.582Z,100.00
2023-04-09T18:35:53.003Z,100.00
2023-04-09T18:38:21.762Z,100.00
2023-04-09T18:40:49.171Z,100.00
2023-04-09T18:43:16.535Z,100.00
2023-04-09T18:45:43.970Z,100.00
2023-04-09T18:48:11.379Z,100.00
2023-04-09T18:50:38.804Z,100.00
2023-04-09T18:53:06.909Z,100.00
2023-04-09T18:55:37.554Z,100.00
2023-04-09T18:58:08.359Z,100.00
2023-04-09T19:00:35.833Z,100.00
2023-04-09T19:03:04.569Z,100.00
2023-04-09T19:05:32.576Z,100.00
2023-04-09T19:08:01.220Z,100.00
2023-04-09T19:10:29.193Z,100.00
2023-04-09T19:12:58.114Z,100.00
2023-04-09T19:15:28.263Z,100.00
2023-04-09T19:17:58.847Z,100.00
2023-04-09T19:20:26.362Z,100.00
2023-04-09T19:22:54.426Z,100.00
2023-04-09T19:25:22.646Z,100.00
2023-04-09T19:27:50.244Z,100.00
2023-04-09T19:30:20.334Z,100.00
2023-04-09T19:32:47.752Z,100.00
2023-04-09T19:35:15.403Z,100.00
2023-04-09T19:37:42.796Z,100.00
2023-04-09T19:40:11.129Z,100.00
2023-04-09T19:42:38.648Z,100.00
2023-04-09T19:45:07.024Z,100.00
2023-04-09T19:47:36.403Z,100.00
2023-04-09T19:50:03.948Z,100.00
2023-04-09T19:52:31.691Z,100.00
2023-04-09T19:54:59.113Z,100.00
2023-04-09T19:57:27.037Z,100.00
2023-04-09T19:59:55.044Z,100.00
2023-04-09T20:02:23.762Z,100.00
2023-04-09T20:04:54.310Z,100.00
2023-04-09T20:07:21.746Z,100.00
2023-04-09T20:09:51.895Z,100.00
2023-04-09T20:12:21.569Z,100.00
2023-04-09T20:14:49.352Z,100.00
2023-04-09T20:17:19.693Z,100.00
2023-04-09T20:19:47.046Z,100.00
2023-04-09T20:22:16.105Z,100.00
2023-04-09T20:24:43.722Z,100.00
2023-04-09T20:27:11.233Z,100.00
2023-04-09T20:29:39.591Z,100.00
2023-04-09T20:32:07.326Z,100.00
2023-04-09T20:34:36.726Z,100.00
2023-04-09T20:37:05.490Z,100.00
2023-04-09T20:39:34.198Z,100.00
2023-04-09T20:42:01.623Z,100.00
2023-04-09T20:44:29.853Z,100.00
2023-04-09T20:46:57.228Z,100.00
2023-04-09T20:49:24.589Z,100.00
2023-04-09T20:51:51.995Z,100.00
2023-04-09T20:54:23.163Z,100.00
2023-04-09T20:56:52.168Z,100.00
2023-04-09T20:59:19.931Z,100.00
2023-04-09T21:01:47.445Z,100.00
2023-04-09T21:04:18.340Z,100.00
2023-04-09T21:06:45.867Z,100.00
2023-04-09T21:09:13.246Z,100.00
2023-04-09T21:11:40.621Z,100.00
2023-04-09T21:14:10.980Z,100.00
2023-04-09T21:16:38.437Z,100.00
2023-04-09T21:19:07.685Z,100.00
2023-04-09T21:21:35.288Z,100.00
2023-04-09T21:24:02.760Z,100.00
2023-04-09T21:26:45.002Z,100.00
2023-04-09T21:29:18.492Z,100.00
2023-04-09T21:31:45.860Z,100.00
2023-04-09T21:34:13.512Z,100.00
2023-04-09T21:36:41.244Z,100.00
2023-04-09T21:39:08.679Z,100.00
2023-04-09T21:41:36.509Z,100.00
2023-04-09T21:44:08.732Z,100.00
2023-04-09T21:46:40.870Z,100.00
2023-04-09T21:49:08.473Z,100.00
2023-04-09T21:51:36.396Z,100.00
2023-04-09T21:54:05.162Z,100.00
2023-04-09T21:56:33.506Z,100.00
2023-04-09T21:59:01.560Z,100.00
2023-04-09T22:01:31.720Z,100.00
2023-04-09T22:04:01.496Z,100.00
2023-04-09T22:06:29.594Z,100.00
2023-04-09T22:08:58.218Z,100.00
2023-04-09T22:11:28.280Z,100.00
2023-04-09T22:13:58.920Z,100.00
2023-04-09T22:16:28.445Z,100.00
2023-04-09T22:18:56.189Z,100.00
2023-04-09T22:21:26.365Z,100.00
2023-04-09T22:23:53.751Z,100.00
2023-04-09T22:26:22.484Z,100.00
2023-04-09T22:28:50.142Z,100.00
2023-04-09T22:31:17.643Z,100.00
2023-04-09T22:33:45.042Z,100.00
2023-04-09T22:36:12.603Z,100.00
2023-04-09T22:38:42.552Z,100.00
2023-04-09T22:41:09.943Z,100.00
2023-04-09T22:43:37.570Z,100.00
2023-04-09T22:46:05.298Z,100.00
2023-04-09T22:48:35.913Z,100.00
2023-04-09T22:51:08.823Z,100.00
2023-04-09T22:53:36.206Z,100.00
2023-04-09T22:56:05.235Z,100.00
2023-04-09T22:58:32.606Z,100.00
2023-04-09T23:01:00.258Z,100.00
2023-04-09T23:03:27.893Z,100.00
2023-04-09T23:05:56.907Z,100.00
2023-04-09T23:08:24.262Z,100.00
2023-04-09T23:10:51.664Z,100.00
2023-04-09T23:13:20.386Z,100.00
2023-04-09T23:15:47.808Z,100.00
2023-04-09T23:18:15.300Z,100.00
2023-04-09T23:20:42.724Z,100.00
2023-04-09T23:23:10.118Z,100.00
2023-04-09T23:25:38.533Z,100.00
2023-04-09T23:28:05.930Z,100.00
2023-04-09T23:30:34.611Z,100.00
2023-04-09T23:33:02.137Z,100.00
2023-04-09T23:35:29.661Z,100.00
2023-04-09T23:37:58.389Z,100.00
2023-04-09T23:40:25.817Z,100.00
2023-04-09T23:42:53.254Z,100.00
2023-04-09T23:45:23.520Z,100.00
2023-04-09T23:47:52.772Z,100.00
2023-04-09T23:50:20.443Z,100.00
2023-04-09T23:52:49.734Z,100.00
2023-04-09T23:55:17.428Z,100.00
2023-04-09T23:57:44.879Z,100.00
